Time;durP1;ratioP1;P1;durP2;ratioP2;P2;SDS_P1;SDS_P2;PMS_P1;PMS_P2;Temp;Humidity;BMP_temperature;BMP_pressure;BME280_temperature;BME280_humidity;BME280_pressure;Samples;Min_cycle;Max_cycle;Signal;HPM_P1;HPM_P2
2023/03/16 00:00:27;;;;;;;8.93;6.47;;;;;;;0.12;98.69;95834.53;6132703;23;20186;-83
2023/03/16 00:02:52;;;;;;;9.20;6.37;;;;;;;0.22;97.67;95843.38;6132917;23;20163;-85
2023/03/16 00:05:17;;;;;;;9.07;7.00;;;;;;;0.25;97.76;95838.09;6131909;23;20692;-85
2023/03/16 00:07:43;;;;;;;8.90;6.77;;;;;;;0.23;97.06;95837.38;6159199;23;20178;-84
2023/03/16 00:10:11;;;;;;;8.27;6.67;;;;;;;0.27;97.46;95833.78;6132526;23;20165;-83
2023/03/16 00:12:36;;;;;;;7.43;5.83;;;;;;;0.23;97.70;95834.81;6132794;23;20171;-83
2023/03/16 00:15:03;;;;;;;8.10;7.03;;;;;;;0.19;97.33;95840.16;6156803;23;20158;-85
2023/03/16 00:17:29;;;;;;;9.10;7.27;;;;;;;0.18;97.40;95834.22;6132945;23;20179;-84
2023/03/16 00:19:56;;;;;;;10.20;7.03;;;;;;;0.20;97.47;95836.72;6132748;23;20210;-84
2023/03/16 00:22:29;;;;;;;10.17;7.50;;;;;;;0.13;98.00;95830.25;6156899;23;20178;-86
2023/03/16 00:24:55;;;;;;;8.97;7.50;;;;;;;0.18;98.28;95836.78;6131844;23;20175;-84
2023/03/16 00:27:21;;;;;;;9.93;7.27;;;;;;;0.17;98.19;95839.41;6132413;23;20585;-84
2023/03/16 00:29:47;;;;;;;10.43;6.90;;;;;;;0.22;98.11;95845.09;6132421;23;20202;-85
2023/03/16 00:32:18;;;;;;;11.23;6.77;;;;;;;0.21;97.90;95839.19;6160644;23;20218;-84
2023/03/16 00:34:44;;;;;;;11.60;7.57;;;;;;;0.14;97.77;95842.94;6139391;23;20158;-85
2023/03/16 00:37:12;;;;;;;11.00;6.83;;;;;;;0.16;97.57;95841.13;6136459;23;20175;-84
2023/03/16 00:39:42;;;;;;;9.13;7.10;;;;;;;0.13;97.57;95840.47;6133507;23;20170;-84
2023/03/16 00:42:08;;;;;;;9.40;7.10;;;;;;;0.05;97.30;95843.41;6133304;23;20612;-84
2023/03/16 00:44:35;;;;;;;7.53;6.40;;;;;;;0.12;98.32;95844.75;6157724;23;20249;-85
2023/03/16 00:47:01;;;;;;;10.37;6.30;;;;;;;0.09;97.53;95833.84;6132085;23;20650;-85
2023/03/16 00:49:26;;;;;;;7.73;6.90;;;;;;;0.10;97.75;95836.34;6133523;23;20222;-85
2023/03/16 00:51:51;;;;;;;8.10;6.10;;;;;;;0.07;97.76;95828.00;6131999;23;20162;-85
2023/03/16 00:54:17;;;;;;;8.43;5.43;;;;;;;0.15;98.33;95831.00;6132047;23;20174;-84
2023/03/16 00:56:42;;;;;;;7.47;5.57;;;;;;;0.15;98.00;95829.25;6131022;23;20179;-85
2023/03/16 00:59:07;;;;;;;8.73;5.90;;;;;;;0.12;97.49;95821.78;6131541;23;20601;-85
2023/03/16 01:01:33;;;;;;;8.03;5.50;;;;;;;0.19;98.32;95812.06;6130640;23;20238;-85
2023/03/16 01:04:01;;;;;;;9.70;5.67;;;;;;;0.22;97.70;95817.84;6130913;23;20159;-83
2023/03/16 01:06:26;;;;;;;7.20;5.90;;;;;;;0.24;97.86;95828.78;6131289;23;20189;-83
2023/03/16 01:08:52;;;;;;;7.03;5.40;;;;;;;0.23;97.81;95823.78;6130793;23;20499;-85
2023/03/16 01:11:20;;;;;;;9.37;5.63;;;;;;;0.31;97.98;95819.09;6156737;23;20159;-84
2023/03/16 01:13:47;;;;;;;8.90;6.10;;;;;;;0.22;97.24;95820.38;6130544;23;20182;-84
2023/03/16 01:16:13;;;;;;;11.77;6.07;;;;;;;0.27;97.60;95815.88;6130107;23;20500;-83
2023/03/16 01:18:40;;;;;;;9.23;6.43;;;;;;;0.23;97.06;95814.38;6130140;23;20159;-84
2023/03/16 01:21:07;;;;;;;10.10;6.20;;;;;;;0.25;97.62;95817.66;6130688;23;20597;-83
2023/03/16 01:23:33;;;;;;;10.87;6.10;;;;;;;0.20;97.28;95813.72;6130981;23;20233;-83
2023/03/16 01:25:58;;;;;;;9.27;6.07;;;;;;;0.18;97.47;95807.88;6105359;23;20586;-83
2023/03/16 01:28:26;;;;;;;6.83;6.10;;;;;;;0.20;97.69;95808.63;6105700;23;20188;-82
2023/03/16 01:30:53;;;;;;;12.50;7.10;;;;;;;0.19;96.82;95807.78;6105659;23;20167;-82
2023/03/16 01:33:20;;;;;;;8.37;6.47;;;;;;;0.22;97.51;95809.34;6130615;23;20163;-84
2023/03/16 01:36:13;;;;;;;10.57;6.07;;;;;;;0.18;97.16;95808.69;6129414;23;20156;-82
2023/03/16 01:38:39;;;;;;;6.43;5.40;;;;;;;0.17;97.35;95811.31;6126926;23;20170;-83
2023/03/16 01:41:05;;;;;;;9.13;6.00;;;;;;;0.17;97.49;95811.31;6105966;23;20245;-82
2023/03/16 01:43:32;;;;;;;9.23;5.77;;;;;;;0.15;97.42;95806.28;6105565;23;20174;-84
2023/03/16 01:46:03;;;;;;;7.17;5.63;;;;;;;0.16;97.58;95805.38;6104086;23;20601;-82
2023/03/16 01:48:36;;;;;;;9.13;6.00;;;;;;;0.09;97.01;95798.09;6155691;23;20152;-81
2023/03/16 01:51:02;;;;;;;8.10;5.60;;;;;;;0.09;97.19;95798.09;6106583;23;20178;-82
2023/03/16 01:53:27;;;;;;;8.57;6.27;;;;;;;0.14;97.74;95796.97;6105414;23;20155;-82
2023/03/16 01:55:54;;;;;;;8.90;5.57;;;;;;;0.09;97.79;95790.44;6129439;23;20226;-85
2023/03/16 01:58:20;;;;;;;10.83;5.70;;;;;;;0.11;96.83;95786.09;6105519;23;20687;-81
2023/03/16 02:00:45;;;;;;;9.07;5.33;;;;;;;0.10;97.24;95777.63;6105819;23;20222;-83
2023/03/16 02:03:14;;;;;;;9.13;5.80;;;;;;;0.19;97.30;95779.69;6129533;23;20171;-82
2023/03/16 02:05:43;;;;;;;12.17;6.60;;;;;;;0.20;97.39;95776.22;6105200;23;20163;-83
2023/03/16 02:08:11;;;;;;;8.97;6.73;;;;;;;0.19;97.77;95778.88;6129481;23;20162;-83
2023/03/16 02:10:36;;;;;;;9.37;6.77;;;;;;;0.22;98.32;95779.53;6129653;23;20476;-82
2023/03/16 02:13:02;;;;;;;11.37;7.23;;;;;;;0.24;98.06;95776.88;6105199;23;20213;-83
2023/03/16 02:15:27;;;;;;;9.83;8.00;;;;;;;0.26;97.82;95786.13;6129449;23;20151;-82
2023/03/16 02:17:53;;;;;;;12.13;7.73;;;;;;;0.25;97.37;95789.56;6107509;23;20182;-83
2023/03/16 02:20:36;;;;;;;9.93;7.10;;;;;;;0.24;98.24;95787.94;6130281;23;20187;-82
2023/03/16 02:23:03;;;;;;;10.60;7.40;;;;;;;0.11;98.04;95792.03;6130078;23;20178;-82
2023/03/16 02:25:52;;;;;;;9.93;7.97;;;;;;;0.08;97.22;95796.44;6126145;23;20174;-81
2023/03/16 02:28:29;;;;;;;8.97;7.60;;;;;;;0.01;97.71;95797.69;6155249;23;20138;-82
2023/03/16 02:30:55;;;;;;;10.90;7.87;;;;;;;-0.08;97.33;95794.69;6153820;23;20606;-82
2023/03/16 02:33:21;;;;;;;12.03;8.47;;;;;;;-0.10;97.80;95793.09;6129488;23;20165;-82
2023/03/16 02:35:46;;;;;;;13.67;9.20;;;;;;;-0.23;98.93;95782.69;6128725;23;20547;-82
2023/03/16 02:38:12;;;;;;;10.53;8.03;;;;;;;-0.21;97.74;95778.31;6129135;23;20186;-82
2023/03/16 02:40:37;;;;;;;11.13;8.13;;;;;;;-0.23;98.76;95776.75;6128671;23;20179;-82
2023/03/16 02:43:32;;;;;;;13.77;9.00;;;;;;;-0.20;99.26;95771.50;6129900;23;20186;-82
2023/03/16 02:45:59;;;;;;;10.27;8.40;;;;;;;-0.21;98.72;95769.84;6151389;23;20159;-81
2023/03/16 02:49:01;;;;;;;11.43;8.83;;;;;;;-0.23;98.94;95762.28;6128896;23;20202;-81
2023/03/16 02:51:27;;;;;;;11.87;8.63;;;;;;;-0.30;99.87;95755.81;6125861;23;20178;-80
2023/03/16 02:53:53;;;;;;;12.90;8.97;;;;;;;-0.34;99.33;95757.72;6129293;23;20158;-82
2023/03/16 02:56:18;;;;;;;12.17;9.97;;;;;;;-0.31;100.00;95752.44;6128873;23;20633;-81
2023/03/16 02:58:43;;;;;;;15.37;9.90;;;;;;;-0.35;100.00;95758.63;6128763;23;20172;-81
2023/03/16 03:01:08;;;;;;;13.87;9.77;;;;;;;-0.29;100.00;95747.25;6154236;23;20243;-82
2023/03/16 03:03:34;;;;;;;12.87;9.63;;;;;;;-0.25;100.00;95747.94;6129462;23;20162;-81
2023/03/16 03:06:00;;;;;;;17.37;10.23;;;;;;;-0.25;100.00;95755.59;6152942;23;20675;-82
2023/03/16 03:08:25;;;;;;;12.63;9.90;;;;;;;-0.36;100.00;95751.00;6129102;23;20158;-82
2023/03/16 03:10:51;;;;;;;17.90;11.50;;;;;;;-0.28;100.00;95749.72;6155824;23;20154;-82
2023/03/16 03:13:16;;;;;;;17.07;11.10;;;;;;;-0.32;100.00;95752.53;6154138;23;20624;-82
2023/03/16 03:15:42;;;;;;;15.77;10.73;;;;;;;-0.26;100.00;95749.69;6153141;23;20146;-82
2023/03/16 03:18:07;;;;;;;17.73;11.00;;;;;;;-0.25;100.00;95742.84;6130662;23;20182;-81
2023/03/16 03:20:33;;;;;;;13.37;10.80;;;;;;;-0.30;100.00;95743.88;6131654;23;20190;-82
2023/03/16 03:22:58;;;;;;;18.40;11.27;;;;;;;-0.28;100.00;95736.97;6131619;23;20170;-82
2023/03/16 03:25:23;;;;;;;18.30;11.13;;;;;;;-0.22;100.00;95729.91;6155327;23;20174;-81
2023/03/16 03:27:49;;;;;;;15.60;10.90;;;;;;;-0.17;100.00;95730.53;6156441;23;20185;-81
2023/03/16 03:30:18;;;;;;;14.53;10.23;;;;;;;-0.19;100.00;95733.13;6131631;23;20166;-82
2023/03/16 03:32:43;;;;;;;16.40;10.73;;;;;;;-0.15;100.00;95733.81;6132126;23;20664;-81
2023/03/16 03:35:11;;;;;;;13.63;10.27;;;;;;;-0.17;100.00;95730.53;6157266;23;20159;-81
2023/03/16 03:37:37;;;;;;;16.60;10.00;;;;;;;-0.13;100.00;95722.63;6134041;23;20295;-81
2023/03/16 03:40:10;;;;;;;17.47;10.73;;;;;;;-0.18;100.00;95721.19;6159858;23;20238;-81
2023/03/16 03:42:36;;;;;;;14.30;10.30;;;;;;;-0.16;100.00;95721.97;6135697;23;20210;-82
2023/03/16 03:45:02;;;;;;;14.83;10.53;;;;;;;-0.29;100.00;95720.00;6156691;23;20154;-82
2023/03/16 03:47:27;;;;;;;14.67;10.60;;;;;;;-0.12;100.00;95719.16;6182771;23;20624;-82
2023/03/16 03:49:53;;;;;;;13.97;10.77;;;;;;;-0.20;100.00;95716.16;6133166;23;20592;-81
2023/03/16 03:52:18;;;;;;;13.53;10.60;;;;;;;-0.21;99.80;95721.34;6132484;23;20876;-81
2023/03/16 03:54:44;;;;;;;16.70;10.83;;;;;;;-0.17;99.51;95717.75;6156062;23;20219;-82
2023/03/16 03:57:09;;;;;;;14.03;10.83;;;;;;;-0.28;99.85;95719.09;6131835;23;20630;-81
2023/03/16 03:59:41;;;;;;;16.90;11.10;;;;;;;-0.21;99.41;95711.97;6157514;23;20601;-81
2023/03/16 04:02:06;;;;;;;14.97;10.17;;;;;;;-0.21;99.91;95716.25;6132893;23;20155;-81
2023/03/16 04:04:32;;;;;;;14.07;11.03;;;;;;;-0.18;99.80;95721.19;6131744;23;20479;-81
2023/03/16 04:06:57;;;;;;;21.07;12.03;;;;;;;-0.24;99.75;95719.78;6131652;23;20185;-82
2023/03/16 04:09:22;;;;;;;15.53;10.93;;;;;;;-0.30;99.66;95718.38;6156098;23;20159;-83
2023/03/16 04:11:48;;;;;;;15.50;10.03;;;;;;;-0.26;99.31;95708.84;6130618;23;20268;-82
2023/03/16 04:14:13;;;;;;;18.03;10.20;;;;;;;-0.20;98.90;95707.69;6157791;23;20161;-82
2023/03/16 04:16:39;;;;;;;15.47;10.43;;;;;;;-0.32;98.86;95716.81;6129853;23;20179;-82
2023/03/16 04:19:04;;;;;;;15.77;11.10;;;;;;;-0.30;99.13;95715.81;6155839;23;20173;-82
2023/03/16 04:21:30;;;;;;;15.33;10.83;;;;;;;-0.25;99.03;95709.66;6131471;23;20715;-82
2023/03/16 04:23:55;;;;;;;13.30;10.40;;;;;;;-0.28;98.58;95708.91;6156690;23;20712;-82
2023/03/16 04:26:20;;;;;;;16.60;10.50;;;;;;;-0.39;98.78;95716.28;6129604;23;20187;-81
2023/03/16 04:28:46;;;;;;;14.37;11.47;;;;;;;-0.41;100.00;95714.72;6130654;23;20222;-81
2023/03/16 04:31:12;;;;;;;14.73;10.93;;;;;;;-0.33;99.30;95705.78;6156785;23;20175;-82
2023/03/16 04:33:37;;;;;;;13.33;10.40;;;;;;;-0.39;99.45;95705.25;6155516;23;20158;-81
2023/03/16 04:36:04;;;;;;;13.77;10.87;;;;;;;-0.45;100.00;95701.28;6154943;23;20185;-81
2023/03/16 04:38:32;;;;;;;19.00;11.67;;;;;;;-0.35;99.22;95705.03;6130606;23;20246;-81
2023/03/16 04:40:57;;;;;;;14.77;11.23;;;;;;;-0.51;100.00;95699.03;6156908;23;20177;-82
2023/03/16 04:43:23;;;;;;;14.30;10.63;;;;;;;-0.38;100.00;95701.78;6131082;23;20233;-81
2023/03/16 04:45:49;;;;;;;14.30;11.30;;;;;;;-0.60;100.00;95697.78;6154603;23;20174;-81
2023/03/16 04:48:14;;;;;;;16.47;10.50;;;;;;;-0.46;99.72;95709.81;6155990;23;20162;-82
2023/03/16 04:50:39;;;;;;;15.67;11.10;;;;;;;-0.51;99.59;95700.78;6156838;23;20175;-82
2023/03/16 04:53:05;;;;;;;15.20;10.60;;;;;;;-0.52;100.00;95702.50;6156138;23;20241;-82
2023/03/16 04:55:30;;;;;;;16.93;10.83;;;;;;;-0.48;99.72;95701.44;6155053;23;20162;-82
2023/03/16 04:57:56;;;;;;;14.53;10.80;;;;;;;-0.51;99.37;95701.59;6131184;23;20217;-82
2023/03/16 05:00:22;;;;;;;14.00;10.30;;;;;;;-0.51;99.17;95700.78;6130878;23;20838;-82
2023/03/16 05:02:49;;;;;;;15.87;10.70;;;;;;;-0.51;98.73;95696.50;6131285;23;20163;-83
2023/03/16 05:05:14;;;;;;;12.17;9.83;;;;;;;-0.57;98.68;95695.06;6130351;23;20203;-83
2023/03/16 05:07:41;;;;;;;13.33;9.73;;;;;;;-0.51;98.19;95693.94;6155456;23;20178;-82
2023/03/16 05:10:08;;;;;;;11.10;8.33;;;;;;;-0.51;98.08;95699.03;6130825;23;20597;-82
2023/03/16 05:12:34;;;;;;;13.87;9.97;;;;;;;-0.51;98.87;95696.50;6155721;23;20531;-82
2023/03/16 05:14:59;;;;;;;14.53;9.47;;;;;;;-0.47;98.49;95697.97;6154636;23;20160;-81
2023/03/16 05:17:24;;;;;;;13.10;10.03;;;;;;;-0.43;98.93;95704.59;6131347;23;20183;-81
2023/03/16 05:19:50;;;;;;;14.27;9.17;;;;;;;-0.45;98.09;95700.44;6156797;23;20159;-81
2023/03/16 05:22:16;;;;;;;12.03;9.37;;;;;;;-0.47;98.82;95695.44;6157299;23;20525;-81
2023/03/16 05:24:41;;;;;;;16.50;9.70;;;;;;;-0.45;98.85;95695.34;6154486;23;20225;-81
2023/03/16 05:27:06;;;;;;;14.27;9.67;;;;;;;-0.41;98.45;95696.84;6152845;23;20559;-81
2023/03/16 05:29:32;;;;;;;14.23;10.73;;;;;;;-0.38;98.19;95697.50;6149377;23;20154;-82
2023/03/16 05:31:58;;;;;;;13.60;10.10;;;;;;;-0.41;98.17;95696.84;6152889;23;20177;-83
2023/03/16 05:34:23;;;;;;;15.67;9.20;;;;;;;-0.36;98.38;95693.16;6128225;23;20233;-83
2023/03/16 05:36:49;;;;;;;11.53;9.53;;;;;;;-0.30;97.57;95694.56;6153664;23;20174;-83
2023/03/16 05:39:14;;;;;;;10.70;8.93;;;;;;;-0.30;97.46;95690.28;6154582;23;20154;-82
2023/03/16 05:41:39;;;;;;;15.87;10.30;;;;;;;-0.37;96.59;95690.69;6154574;23;20269;-83
2023/03/16 05:44:05;;;;;;;13.17;10.07;;;;;;;-0.37;97.36;95685.56;6128959;23;20162;-83
2023/03/16 05:46:31;;;;;;;13.90;9.83;;;;;;;-0.36;97.78;95682.13;6153499;23;20180;-81
2023/03/16 05:48:56;;;;;;;11.90;9.93;;;;;;;-0.37;98.19;95677.91;6155359;23;20618;-82
2023/03/16 05:51:25;;;;;;;12.13;9.33;;;;;;;-0.41;97.89;95679.81;6130110;23;20169;-83
2023/03/16 05:53:50;;;;;;;15.77;9.67;;;;;;;-0.22;97.09;95679.69;6130569;23;20166;-83
2023/03/16 05:56:15;;;;;;;12.23;9.40;;;;;;;-0.21;97.12;95673.69;6129343;23;20190;-82
2023/03/16 05:58:41;;;;;;;12.50;9.10;;;;;;;-0.26;97.14;95679.94;6127481;23;20159;-82
2023/03/16 06:01:08;;;;;;;12.80;8.73;;;;;;;-0.31;96.77;95675.88;6126640;23;20667;-83
2023/03/16 06:03:33;;;;;;;14.93;9.40;;;;;;;-0.17;96.55;95675.19;6128219;23;20222;-83
2023/03/16 06:05:58;;;;;;;11.70;9.03;;;;;;;-0.08;96.01;95673.88;6127696;23;20189;-82
2023/03/16 06:08:24;;;;;;;11.43;9.43;;;;;;;-0.07;95.90;95670.44;6128778;23;20249;-79
2023/03/16 06:10:49;;;;;;;11.87;8.33;;;;;;;-0.17;95.83;95674.38;6128710;23;20597;-83
2023/03/16 06:13:15;;;;;;;13.67;8.70;;;;;;;-0.03;95.66;95675.28;6128742;23;20159;-83
2023/03/16 06:15:40;;;;;;;12.50;8.43;;;;;;;-0.04;95.71;95678.75;6127299;23;20631;-82
2023/03/16 06:18:06;;;;;;;10.53;8.30;;;;;;;0.04;94.59;95683.44;6128851;23;20951;-82
2023/03/16 06:20:31;;;;;;;11.97;8.33;;;;;;;0.10;94.96;95677.19;6130956;23;20225;-82
2023/03/16 06:22:57;;;;;;;10.83;7.73;;;;;;;0.20;93.94;95684.28;6153438;23;20177;-83
2023/03/16 06:25:22;;;;;;;10.67;8.40;;;;;;;0.28;93.29;95682.16;6152900;23;20202;-83
2023/03/16 06:27:48;;;;;;;11.83;7.53;;;;;;;0.31;92.71;95681.16;6128526;23;20194;-82
2023/03/16 06:30:14;;;;;;;9.57;7.43;;;;;;;0.34;93.08;95686.09;6130920;23;20206;-83
2023/03/16 06:32:44;;;;;;;11.27;7.27;;;;;;;0.43;93.07;95684.78;6156493;23;20162;-83
2023/03/16 06:35:10;;;;;;;11.07;7.50;;;;;;;0.55;92.22;95689.22;6130693;23;20627;-82
2023/03/16 06:37:35;;;;;;;10.60;7.17;;;;;;;0.61;92.42;95685.50;6128880;23;20190;-82
2023/03/16 06:40:00;;;;;;;10.20;7.73;;;;;;;0.66;92.00;95686.09;6128896;23;20248;-83
2023/03/16 06:42:26;;;;;;;11.63;8.03;;;;;;;0.53;92.96;95683.38;6156117;23;20212;-80
2023/03/16 06:44:54;;;;;;;10.10;6.77;;;;;;;0.53;93.52;95685.91;6153863;23;20649;-81
2023/03/16 06:47:20;;;;;;;9.10;6.77;;;;;;;0.64;92.72;95688.72;6128189;23;20185;-79
2023/03/16 06:49:45;;;;;;;9.20;6.73;;;;;;;0.79;91.79;95687.88;6155122;23;20162;-84
2023/03/16 06:52:15;;;;;;;12.30;7.53;;;;;;;0.76;92.08;95688.03;6130437;23;20205;-80
2023/03/16 06:54:40;;;;;;;10.07;7.77;;;;;;;0.71;92.62;95691.78;6129622;23;20158;-81
2023/03/16 06:57:06;;;;;;;10.67;7.13;;;;;;;0.92;92.07;95684.66;6129072;23;20187;-80
2023/03/16 06:59:31;;;;;;;10.13;6.90;;;;;;;0.80;92.84;95681.88;6154170;23;20182;-81
2023/03/16 07:01:57;;;;;;;10.80;6.63;;;;;;;1.07;91.93;95692.28;6125266;23;20257;-81
2023/03/16 07:04:22;;;;;;;10.77;7.57;;;;;;;1.16;91.21;95696.06;6153113;23;20695;-81
2023/03/16 07:06:47;;;;;;;10.40;7.07;;;;;;;0.96;91.52;95681.81;6126223;23;20650;-81
2023/03/16 07:09:13;;;;;;;15.80;7.50;;;;;;;1.14;91.48;95687.63;6152699;23;20159;-81
2023/03/16 07:11:38;;;;;;;10.13;6.90;;;;;;;1.37;90.24;95694.00;6152272;23;20533;-80
2023/03/16 07:14:04;;;;;;;10.40;7.10;;;;;;;1.39;90.80;95693.00;6127476;23;20543;-82
2023/03/16 07:16:29;;;;;;;9.13;6.53;;;;;;;1.48;90.11;95701.88;6127044;23;20175;-82
2023/03/16 07:18:55;;;;;;;10.03;6.03;;;;;;;1.60;89.63;95700.34;6128752;23;20234;-82
2023/03/16 07:21:20;;;;;;;10.73;7.40;;;;;;;1.70;89.41;95701.47;6129276;23;20186;-82
2023/03/16 07:23:46;;;;;;;10.37;7.10;;;;;;;1.78;89.24;95706.97;6128004;23;20175;-81
2023/03/16 07:26:12;;;;;;;9.50;6.30;;;;;;;1.58;89.58;95704.72;6122775;23;20203;-82
2023/03/16 07:28:38;;;;;;;10.13;6.67;;;;;;;1.61;89.61;95700.25;6147470;23;20209;-81
2023/03/16 07:31:05;;;;;;;8.70;6.37;;;;;;;1.74;89.05;95708.03;6099087;23;20148;-81
2023/03/16 07:33:31;;;;;;;7.20;6.50;;;;;;;1.79;88.90;95703.47;6099186;23;20150;-81
2023/03/16 07:35:56;;;;;;;9.40;6.80;;;;;;;2.12;88.34;95702.38;6097102;23;20171;-81
2023/03/16 07:38:22;;;;;;;8.20;5.90;;;;;;;2.18;88.02;95700.25;6122713;23;20163;-81
2023/03/16 07:40:47;;;;;;;7.73;6.03;;;;;;;1.90;87.82;95706.22;6123060;23;20179;-81
2023/03/16 07:43:12;;;;;;;8.67;5.63;;;;;;;1.96;87.67;95708.44;6124788;23;20765;-80
2023/03/16 07:45:38;;;;;;;8.17;6.47;;;;;;;2.16;87.49;95701.28;6099103;23;20243;-82
2023/03/16 07:48:03;;;;;;;8.10;6.47;;;;;;;2.01;87.26;95707.31;6122700;23;20186;-83
2023/03/16 07:50:28;;;;;;;8.73;6.30;;;;;;;2.09;87.74;95711.06;6124007;23;20164;-82
2023/03/16 07:52:53;;;;;;;8.13;6.40;;;;;;;2.06;87.13;95706.13;6123837;23;20159;-83
2023/03/16 07:55:19;;;;;;;8.00;6.33;;;;;;;2.18;86.90;95709.69;6098892;23;20167;-81
2023/03/16 07:57:47;;;;;;;10.50;8.07;;;;;;;2.23;86.73;95712.81;6123566;23;20175;-82
2023/03/16 08:00:13;;;;;;;10.43;6.47;;;;;;;2.31;85.97;95713.16;6098624;23;20184;-81
2023/03/16 08:02:38;;;;;;;8.63;6.20;;;;;;;2.31;85.56;95718.28;6100041;23;20156;-83
2023/03/16 08:05:04;;;;;;;9.53;6.73;;;;;;;2.45;85.35;95725.94;6124651;23;20260;-81
2023/03/16 08:07:30;;;;;;;26.50;13.60;;;;;;;2.49;84.69;95722.28;6101487;23;20642;-82
2023/03/16 08:09:56;;;;;;;25.93;16.17;;;;;;;2.47;83.25;95723.28;6149433;23;20160;-80
2023/03/16 08:12:21;;;;;;;10.40;7.97;;;;;;;2.60;83.87;95718.25;6125743;23;20199;-81
2023/03/16 08:14:46;;;;;;;7.63;6.77;;;;;;;2.63;83.66;95715.47;6125717;23;20160;-82
2023/03/16 08:17:12;;;;;;;6.70;5.53;;;;;;;2.63;83.11;95710.34;6150703;23;20645;-82
2023/03/16 08:19:37;;;;;;;9.20;6.10;;;;;;;2.44;82.89;95708.94;6102766;23;20159;-82
2023/03/16 08:22:04;;;;;;;7.67;5.87;;;;;;;2.74;82.47;95707.94;6101588;23;20215;-81
2023/03/16 08:24:30;;;;;;;8.23;5.73;;;;;;;2.73;82.50;95694.28;6102559;23;20276;-83
2023/03/16 08:26:56;;;;;;;7.23;5.20;;;;;;;2.83;82.55;95681.75;6103439;23;20180;-82
2023/03/16 08:29:21;;;;;;;7.83;5.43;;;;;;;2.96;81.65;95679.19;6128537;23;20152;-82
2023/03/16 08:31:47;;;;;;;6.90;5.70;;;;;;;3.20;81.29;95684.50;6128885;23;20199;-83
2023/03/16 08:34:12;;;;;;;6.97;5.20;;;;;;;3.24;81.48;95678.25;6128435;23;20174;-83
2023/03/16 08:36:38;;;;;;;8.57;5.73;;;;;;;3.35;79.66;95681.75;6128238;23;20176;-83
2023/03/16 08:39:04;;;;;;;6.60;5.43;;;;;;;3.39;80.14;95679.81;6102141;23;20179;-85
2023/03/16 08:41:33;;;;;;;6.93;5.27;;;;;;;3.43;80.35;95688.94;6102433;23;20188;-84
2023/03/16 08:43:58;;;;;;;5.30;4.63;;;;;;;3.45;79.30;95689.69;6101280;23;20170;-84
2023/03/16 08:46:24;;;;;;;7.63;4.93;;;;;;;3.48;79.14;95696.34;6101449;23;20593;-83
2023/03/16 08:48:49;;;;;;;6.03;4.43;;;;;;;3.55;78.36;95695.84;6124851;23;20215;-81
2023/03/16 08:51:16;;;;;;;6.20;5.10;;;;;;;3.73;79.66;95695.56;6126054;23;20533;-83
2023/03/16 08:53:43;;;;;;;8.97;4.83;;;;;;;3.66;79.36;95688.25;6101788;23;20194;-83
2023/03/16 08:56:11;;;;;;;5.60;4.27;;;;;;;3.83;78.51;95687.13;6100858;23;20238;-84
2023/03/16 08:58:37;;;;;;;5.80;4.60;;;;;;;3.88;78.08;95685.06;6101881;23;20166;-84
2023/03/16 09:01:04;;;;;;;5.20;4.23;;;;;;;3.98;76.61;95680.16;6102228;23;20267;-83
2023/03/16 09:03:31;;;;;;;5.73;4.40;;;;;;;3.92;76.89;95683.13;6125786;23;20172;-83
2023/03/16 09:06:01;;;;;;;6.33;5.10;;;;;;;4.13;77.68;95683.41;6101235;23;20269;-84
2023/03/16 09:08:27;;;;;;;5.83;4.60;;;;;;;4.17;78.03;95695.94;6101185;23;20168;-83
2023/03/16 09:11:01;;;;;;;8.43;4.50;;;;;;;4.21;77.64;95697.38;6125463;23;20591;-83
2023/03/16 09:13:27;;;;;;;5.23;4.00;;;;;;;4.20;77.56;95695.72;6125342;23;20145;-83
2023/03/16 09:15:53;;;;;;;8.60;4.20;;;;;;;4.52;77.65;95692.69;6098184;23;20494;-82
2023/03/16 09:18:18;;;;;;;5.67;4.30;;;;;;;4.66;76.91;95684.00;6123724;23;20153;-83
2023/03/16 09:20:46;;;;;;;4.83;4.07;;;;;;;4.65;76.84;95682.34;6098744;23;20191;-83
2023/03/16 09:23:12;;;;;;;4.27;3.50;;;;;;;4.77;76.16;95687.47;6099494;23;20251;-83
2023/03/16 09:25:38;;;;;;;4.37;3.97;;;;;;;4.82;74.04;95680.22;6098887;23;20263;-82
2023/03/16 09:28:04;;;;;;;5.80;3.93;;;;;;;4.93;75.19;95678.63;6124265;23;20194;-82
2023/03/16 09:30:29;;;;;;;5.03;3.90;;;;;;;5.00;74.09;95679.84;6123641;23;20152;-82
2023/03/16 09:32:54;;;;;;;5.50;4.20;;;;;;;5.32;73.98;95669.78;6099700;23;20164;-85
2023/03/16 09:35:20;;;;;;;5.23;4.13;;;;;;;5.44;72.83;95674.03;6109804;23;20160;-85
2023/03/16 09:37:45;;;;;;;5.00;4.13;;;;;;;5.31;73.40;95681.03;6132921;23;20251;-83
2023/03/16 09:40:20;;;;;;;6.27;4.13;;;;;;;5.54;73.70;95675.00;6124090;23;20219;-82
2023/03/16 09:42:57;;;;;;;4.23;3.83;;;;;;;5.78;73.49;95671.53;6099936;23;20593;-81
2023/03/16 09:45:35;;;;;;;4.83;3.57;;;;;;;5.94;71.99;95680.59;6124807;23;20174;-83
2023/03/16 09:48:03;;;;;;;7.73;4.07;;;;;;;6.17;72.32;95684.00;6099690;23;20179;-83
2023/03/16 09:50:33;;;;;;;6.07;3.77;;;;;;;6.16;71.38;95684.13;6099791;23;20155;-83
2023/03/16 09:53:19;;;;;;;4.33;3.70;;;;;;;6.38;71.45;95680.72;6124789;23;20206;-84
2023/03/16 09:55:48;;;;;;;5.87;3.90;;;;;;;6.55;69.78;95674.25;6098579;23;20160;-84
2023/03/16 09:58:20;;;;;;;6.47;3.83;;;;;;;6.72;68.94;95684.06;6124449;23;20164;-85
2023/03/16 10:01:24;;;;;;;4.93;3.67;;;;;;;6.69;67.40;95676.56;6099821;23;20262;-83
2023/03/16 10:04:01;;;;;;;8.80;3.80;;;;;;;6.73;68.61;95673.63;6100132;23;20612;-82
2023/03/16 10:06:26;;;;;;;5.30;3.20;;;;;;;6.63;67.12;95664.97;6124405;23;20183;-83
2023/03/16 10:09:29;;;;;;;5.17;3.73;;;;;;;6.86;67.62;95670.06;6124093;23;20163;-80
2023/03/16 10:11:56;;;;;;;4.23;3.37;;;;;;;6.26;67.42;95667.00;6123719;23;20160;-83
2023/03/16 10:14:43;;;;;;;4.07;3.47;;;;;;;6.38;68.18;95678.97;6124327;23;20235;-82
2023/03/16 10:17:16;;;;;;;6.40;3.80;;;;;;;6.79;67.39;95670.53;6123490;23;20194;-83
2023/03/16 10:19:50;;;;;;;6.30;3.73;;;;;;;6.96;66.42;95658.88;6100055;23;20236;-83
2023/03/16 10:22:22;;;;;;;4.20;2.90;;;;;;;6.99;67.47;95645.75;6098833;23;20179;-80
2023/03/16 10:25:00;;;;;;;4.67;3.10;;;;;;;6.80;66.52;95643.81;6121707;23;20171;-80
2023/03/16 10:27:29;;;;;;;7.90;3.60;;;;;;;7.16;66.73;95646.97;6124547;23;20194;-81
2023/03/16 10:29:55;;;;;;;4.60;3.13;;;;;;;7.29;66.30;95644.19;6100456;23;20622;-81
2023/03/16 10:32:23;;;;;;;5.13;3.10;;;;;;;7.45;64.05;95641.19;6101129;23;20156;-84
2023/03/16 10:34:56;;;;;;;4.33;3.20;;;;;;;7.28;63.75;95640.78;6101051;23;20230;-83
2023/03/16 10:37:23;;;;;;;3.40;3.07;;;;;;;6.91;65.38;95642.94;6100550;23;20214;-82
2023/03/16 10:39:48;;;;;;;2.93;2.43;;;;;;;7.35;65.17;95643.69;6124311;23;20159;-80
2023/03/16 10:42:20;;;;;;;4.40;3.13;;;;;;;7.20;65.30;95632.03;6096512;23;20282;-83
2023/03/16 10:44:46;;;;;;;8.00;3.20;;;;;;;7.26;61.28;95634.94;6122516;23;20136;-82
2023/03/16 10:47:21;;;;;;;4.27;2.90;;;;;;;7.51;60.28;95632.91;6123806;23;20183;-81
2023/03/16 10:49:48;;;;;;;4.00;2.73;;;;;;;7.35;61.64;95633.38;6099559;23;20155;-82
2023/03/16 10:52:37;;;;;;;4.27;2.30;;;;;;;7.43;58.38;95633.56;6100046;23;20240;-81
2023/03/16 10:55:25;;;;;;;5.10;2.20;;;;;;;7.70;58.85;95634.81;6097810;23;20163;-81
2023/03/16 10:57:53;;;;;;;3.63;1.90;;;;;;;7.65;56.48;95633.41;6099257;23;20180;-82
2023/03/16 11:00:21;;;;;;;2.97;2.30;;;;;;;7.64;58.00;95644.69;6123189;23;20204;-82
2023/03/16 11:02:48;;;;;;;3.57;2.47;;;;;;;7.77;57.91;95646.25;6121285;23;20183;-82
2023/03/16 11:05:34;;;;;;;3.00;2.30;;;;;;;7.92;57.11;95642.38;6122567;23;20163;-81
2023/03/16 11:08:09;;;;;;;3.20;2.30;;;;;;;8.11;57.50;95645.06;6146921;23;20264;-83
2023/03/16 11:10:38;;;;;;;2.90;2.03;;;;;;;8.06;56.08;95646.41;6122716;23;20155;-83
2023/03/16 11:13:13;;;;;;;8.73;2.00;;;;;;;7.95;54.23;95640.38;6123582;23;20152;-82
2023/03/16 11:15:56;;;;;;;2.50;2.03;;;;;;;7.89;53.63;95647.84;6123262;23;20155;-82
2023/03/16 11:18:29;;;;;;;3.30;1.93;;;;;;;7.98;52.83;95639.31;6099647;23;20148;-82
2023/03/16 11:20:56;;;;;;;3.83;1.70;;;;;;;7.97;51.00;95632.50;6099782;23;20183;-82
2023/03/16 11:23:29;;;;;;;2.17;1.90;;;;;;;8.17;51.81;95639.38;6098701;23;20160;-83
2023/03/16 11:25:55;;;;;;;3.93;1.60;;;;;;;8.03;52.13;95629.38;6101472;23;20271;-82
2023/03/16 11:28:31;;;;;;;3.50;1.63;;;;;;;8.27;51.59;95612.72;6098919;23;20238;-84
2023/03/16 11:31:39;;;;;;;1.73;1.60;;;;;;;8.04;50.52;95628.44;6076597;23;20210;-84
2023/03/16 11:34:12;;;;;;;2.17;1.40;;;;;;;8.51;49.72;95610.63;6099105;23;20610;-84